Página principal
METAR-TAF:

METAR-TAF

Aeroportos :

Larnaca, Chipre

Aeroporto Internacional de Lárnaca

latitude: 34-53N, longitude: 033-38E, altura: 2 m

Observação actual do tempo

O boletim foi feito há 31 minutos, às 10:30 UTC
Vento 10 kt de este
Temperatura 29°C
Humidade 29%
Pressão 1016 hPa
Visibilidade 10 km ou mais
sem nuvens abaixo de 1500 metros e sem cumulonimbus

METAR: LCLK 181030Z 08010KT CAVOK 29/09 Q1016 NOSIG

Hora: 14:01 (11:01 UTC)

Previsão

O boletim foi feito há 5 horas e 31 minutos, às 05:30 UTC
Previsão válida de 18 às 06 UTC a 19 às 06 UTC
Vento 8 kt de noroeste
Visibilidade 10 km ou mais
Poucas nuvensa uma altura de 2500 ft
Tornando-se
de 18 às 07 UTC a 18 às 11 UTC
Vento 12 kt de es-nordeste
Tornando-se
de 18 às 16 UTC a 18 às 20 UTC
Vento 7 kt de noroeste

TAF: LCLK 180530Z 1806/1906 32008KT 9999 FEW025 BECMG 1807/1811 07012KT BECMG 1816/1820 32007KT

Observações e previsões do tempo de mais de 4000 aeroportos (mensagens METAR e TAF).

As estações disponíveis são os pontos amarelos e vermelhos sobre o mapa.

Mova o rato sobre o mapa para ver o nome da estação.

Depois clique no ponto para visualizar as observações e previsões meteorológicas.

Para alterar o mapa : clique nos botões verdes com uma cruz preta para aumentar o zoom; no botão verde com uma pitada de zoom; ou nas setas verdes para mapas adjacentes.


METAR-TAF: